createdAt,value
2017-09-12T00:00:34.608Z,68.50
2017-09-12T00:03:02.097Z,68.30
2017-09-12T00:05:29.638Z,68.80
2017-09-12T00:07:57.962Z,68.00
2017-09-12T00:10:25.480Z,68.00
2017-09-12T00:12:53.752Z,68.40
2017-09-12T00:15:22.013Z,68.40
2017-09-12T00:17:49.553Z,68.40
2017-09-12T00:20:17.045Z,68.50
2017-09-12T00:22:45.308Z,68.50
2017-09-12T00:25:13.597Z,69.10
2017-09-12T00:27:41.921Z,68.70
2017-09-12T00:30:09.408Z,68.60
2017-09-12T00:32:36.896Z,68.80
2017-09-12T00:35:04.424Z,68.80
2017-09-12T00:37:31.921Z,68.40
2017-09-12T00:39:59.432Z,68.70
2017-09-12T00:42:26.949Z,68.70
2017-09-12T00:44:54.477Z,68.90
2017-09-12T00:47:22.737Z,69.00
2017-09-12T00:49:51.004Z,68.80
2017-09-12T00:52:19.297Z,68.80
2017-09-12T00:54:47.564Z,68.50
2017-09-12T00:57:15.857Z,68.50
2017-09-12T00:59:43.356Z,68.50
2017-09-12T01:02:10.856Z,68.40
2017-09-12T01:04:39.147Z,68.30
2017-09-12T01:07:06.640Z,68.30
2017-09-12T01:09:34.158Z,68.20
2017-09-12T01:12:01.666Z,68.20
2017-09-12T01:14:29.182Z,68.00
2017-09-12T01:16:56.675Z,67.90
2017-09-12T01:19:24.221Z,67.90
2017-09-12T01:21:51.724Z,68.50
2017-09-12T01:24:19.985Z,68.40
2017-09-12T01:26:47.500Z,68.30
2017-09-12T01:29:15.037Z,68.10
2017-09-12T01:31:42.531Z,68.30
2017-09-12T01:34:10.017Z,68.30
2017-09-12T01:36:37.536Z,68.30
2017-09-12T01:39:05.044Z,68.50
2017-09-12T01:41:33.325Z,69.20
2017-09-12T01:44:01.612Z,68.80
2017-09-12T01:46:29.865Z,68.50
2017-09-12T01:48:57.399Z,68.50
2017-09-12T01:51:24.917Z,68.50
2017-09-12T01:53:52.413Z,68.60
2017-09-12T01:56:19.933Z,68.60
2017-09-12T01:58:47.432Z,68.50
2017-09-12T02:01:14.956Z,68.60
2017-09-12T02:03:42.449Z,68.60
2017-09-12T02:06:10.233Z,68.70
2017-09-12T02:08:38.498Z,69.00
2017-09-12T02:11:07.509Z,69.00
2017-09-12T02:13:35.800Z,69.00
2017-09-12T02:16:03.300Z,68.90
2017-09-12T02:18:30.788Z,69.10
2017-09-12T02:20:59.075Z,68.90
2017-09-12T02:23:27.352Z,68.90
2017-09-12T02:25:55.628Z,69.20
2017-09-12T02:28:23.882Z,69.20
2017-09-12T02:30:51.403Z,69.10
2017-09-12T02:33:18.920Z,69.30
2017-09-12T02:35:47.182Z,69.70
2017-09-12T02:38:14.681Z,69.60
2017-09-12T02:40:42.199Z,69.90
2017-09-12T02:43:10.468Z,70.90
2017-09-12T02:45:38.729Z,71.80
2017-09-12T02:48:06.297Z,70.90
2017-09-12T02:50:33.810Z,71.00
2017-09-12T02:53:01.328Z,71.60
2017-09-12T02:55:29.623Z,71.00
2017-09-12T02:57:57.123Z,70.90
2017-09-12T03:00:24.617Z,71.00
2017-09-12T03:02:52.906Z,71.20
2017-09-12T03:05:20.436Z,71.20
2017-09-12T03:07:47.932Z,71.20
2017-09-12T03:10:15.459Z,71.10
2017-09-12T03:12:43.733Z,71.30
2017-09-12T03:15:11.253Z,71.30
2017-09-12T03:17:38.748Z,71.40
2017-09-12T03:20:07.003Z,71.40
2017-09-12T03:22:34.529Z,71.60
2017-09-12T03:25:02.065Z,71.70
2017-09-12T03:27:29.573Z,71.80
2017-09-12T03:29:57.063Z,71.60
2017-09-12T03:32:25.351Z,71.70
2017-09-12T03:34:53.609Z,71.60
2017-09-12T03:37:21.865Z,71.50
2017-09-12T03:39:49.405Z,71.40
2017-09-12T03:42:16.901Z,71.60
2017-09-12T03:44:45.191Z,72.30
2017-09-12T03:47:12.730Z,72.20
2017-09-12T03:49:40.272Z,72.80
2017-09-12T03:52:07.773Z,72.30
2017-09-12T03:54:35.267Z,72.50
2017-09-12T03:57:02.795Z,73.10
2017-09-12T03:59:30.313Z,72.60
2017-09-12T04:01:57.805Z,72.40
2017-09-12T04:04:25.319Z,73.70
2017-09-12T04:06:52.845Z,72.80
2017-09-12T04:09:20.372Z,72.70
2017-09-12T04:11:47.868Z,72.50
2017-09-12T04:14:15.388Z,72.80
2017-09-12T04:16:42.910Z,73.10
2017-09-12T04:19:10.409Z,73.50
2017-09-12T04:21:37.928Z,73.80
2017-09-12T04:24:05.413Z,73.80
2017-09-12T04:26:32.916Z,73.70
2017-09-12T04:29:00.453Z,73.70
2017-09-12T04:31:27.945Z,74.60
2017-09-12T04:33:55.443Z,74.10
2017-09-12T04:36:22.955Z,73.60
2017-09-12T04:38:51.217Z,73.60
2017-09-12T04:41:18.749Z,73.60
2017-09-12T04:43:46.240Z,73.80
2017-09-12T04:46:13.737Z,73.80
2017-09-12T04:48:42.016Z,73.80
2017-09-12T04:51:09.557Z,73.80
2017-09-12T04:53:37.841Z,73.20
2017-09-12T04:56:06.109Z,72.80
2017-09-12T04:58:34.402Z,72.70
2017-09-12T05:01:01.901Z,72.70
2017-09-12T05:03:29.434Z,72.40
2017-09-12T05:05:56.932Z,72.40
2017-09-12T05:08:24.438Z,72.60
2017-09-12T05:10:51.950Z,71.80
2017-09-12T05:13:19.472Z,71.90
2017-09-12T05:15:46.995Z,72.00
2017-09-12T05:18:15.256Z,72.60
2017-09-12T05:20:42.795Z,71.80
2017-09-12T05:23:10.298Z,71.60
2017-09-12T05:25:37.793Z,71.90
2017-09-12T05:28:05.321Z,71.60
2017-09-12T05:30:32.822Z,71.50
2017-09-12T05:33:00.320Z,71.50
2017-09-12T05:35:27.865Z,71.80
2017-09-12T05:37:56.129Z,71.90
2017-09-12T05:40:23.624Z,71.90
2017-09-12T05:42:51.142Z,72.30
2017-09-12T05:45:18.625Z,72.50
2017-09-12T05:47:46.144Z,72.90
2017-09-12T05:50:13.644Z,72.90
2017-09-12T05:52:41.148Z,73.40
2017-09-12T05:55:08.660Z,73.20
2017-09-12T05:57:36.156Z,74.00
2017-09-12T06:00:03.740Z,73.90
2017-09-12T06:02:31.237Z,74.40
2017-09-12T06:04:58.738Z,75.40
2017-09-12T06:07:26.280Z,75.10
2017-09-12T06:09:53.785Z,76.10
2017-09-12T06:12:22.091Z,76.60
2017-09-12T06:14:49.589Z,76.60
2017-09-12T06:17:17.145Z,76.80
2017-09-12T06:19:44.704Z,77.40
2017-09-12T06:22:12.206Z,77.70
2017-09-12T06:24:39.729Z,78.90
2017-09-12T06:27:07.984Z,78.40
2017-09-12T06:29:35.514Z,78.50
2017-09-12T06:32:03.017Z,79.00
2017-09-12T06:34:32.048Z,79.50
2017-09-12T06:36:59.560Z,79.40
2017-09-12T06:39:27.085Z,79.90
2017-09-12T06:41:54.613Z,80.40
2017-09-12T06:44:22.884Z,80.30
2017-09-12T06:46:51.146Z,81.30
2017-09-12T06:49:19.425Z,82.30
2017-09-12T06:51:46.920Z,82.30
2017-09-12T06:54:14.436Z,81.00
2017-09-12T06:56:42.701Z,80.50
2017-09-12T06:59:10.215Z,80.70
2017-09-12T07:01:37.761Z,81.00
2017-09-12T07:04:05.255Z,81.50
2017-09-12T07:06:32.788Z,82.50
2017-09-12T07:09:00.304Z,83.10
2017-09-12T07:11:28.573Z,82.30
2017-09-12T07:13:56.092Z,82.20
2017-09-12T07:16:23.608Z,81.80
2017-09-12T07:18:51.908Z,82.00
2017-09-12T07:21:19.421Z,82.00
2017-09-12T07:23:47.715Z,81.50
2017-09-12T07:26:15.977Z,81.60
2017-09-12T07:28:44.265Z,81.20
2017-09-12T07:31:12.553Z,81.50
2017-09-12T07:33:40.044Z,81.50
2017-09-12T07:36:07.599Z,82.20
2017-09-12T07:38:35.100Z,83.20
2017-09-12T07:41:02.587Z,80.90
2017-09-12T07:43:30.103Z,79.80
2017-09-12T07:45:57.693Z,79.60
2017-09-12T07:48:25.221Z,79.40
2017-09-12T07:50:52.729Z,80.00
2017-09-12T07:53:20.241Z,80.00
2017-09-12T07:55:47.737Z,80.00
2017-09-12T07:58:15.264Z,79.80
2017-09-12T08:00:43.564Z,80.20
2017-09-12T08:03:11.057Z,80.10
2017-09-12T08:05:38.572Z,78.90
2017-09-12T08:08:06.075Z,79.20
2017-09-12T08:10:33.597Z,77.90
2017-09-12T08:13:01.101Z,78.30
2017-09-12T08:15:28.639Z,78.00
2017-09-12T08:17:56.173Z,77.20
2017-09-12T08:20:23.703Z,77.80
2017-09-12T08:22:51.190Z,78.10
2017-09-12T08:25:18.717Z,77.10
2017-09-12T08:27:46.977Z,77.70
2017-09-12T08:30:14.490Z,77.70
2017-09-12T08:32:41.992Z,75.60
2017-09-12T08:35:09.506Z,76.20
2017-09-12T08:37:37.032Z,76.40
2017-09-12T08:40:04.534Z,76.60
2017-09-12T08:42:32.066Z,76.30
2017-09-12T08:44:59.569Z,76.60
2017-09-12T08:47:27.079Z,76.30
2017-09-12T08:49:54.566Z,75.60
2017-09-12T08:52:22.084Z,75.10
2017-09-12T08:54:49.598Z,75.00
2017-09-12T08:57:17.120Z,75.00
2017-09-12T08:59:44.627Z,74.40
2017-09-12T09:02:12.160Z,74.60
2017-09-12T09:04:39.692Z,74.30
2017-09-12T09:07:07.178Z,74.10
2017-09-12T09:09:34.709Z,73.90
2017-09-12T09:12:02.222Z,72.20
2017-09-12T09:14:30.559Z,72.00
2017-09-12T09:16:58.050Z,72.00
2017-09-12T09:19:25.551Z,71.70
2017-09-12T09:21:53.075Z,72.20
2017-09-12T09:24:21.348Z,72.50
2017-09-12T09:26:49.643Z,71.90
2017-09-12T09:29:17.156Z,71.90
2017-09-12T09:31:44.647Z,72.60
2017-09-12T09:34:12.932Z,71.30
2017-09-12T09:36:40.420Z,71.30
2017-09-12T09:39:07.945Z,70.50
2017-09-12T09:41:35.437Z,68.80
2017-09-12T09:44:02.989Z,68.60
2017-09-12T09:46:30.497Z,70.20
2017-09-12T09:48:58.765Z,68.80
2017-09-12T09:51:26.288Z,68.00
2017-09-12T09:53:53.785Z,68.70
2017-09-12T09:56:22.067Z,67.80
2017-09-12T09:58:50.352Z,66.80
2017-09-12T10:01:18.641Z,65.80
2017-09-12T10:03:46.186Z,65.90
2017-09-12T10:06:14.466Z,60.30
2017-09-12T10:08:41.989Z,60.10
2017-09-12T10:11:09.476Z,58.70
2017-09-12T10:13:37.764Z,59.00
2017-09-12T10:16:05.341Z,59.70
2017-09-12T10:18:32.850Z,59.80
2017-09-12T10:21:01.137Z,58.90
2017-09-12T10:23:29.396Z,58.80
2017-09-12T10:25:56.919Z,58.20
2017-09-12T10:28:24.426Z,59.20
2017-09-12T10:30:52.706Z,59.30
2017-09-12T10:33:20.246Z,59.30
2017-09-12T10:35:47.751Z,59.20
2017-09-12T10:38:15.264Z,58.70
2017-09-12T10:40:43.544Z,58.10
2017-09-12T10:43:11.834Z,58.00
2017-09-12T10:45:39.352Z,57.90
2017-09-12T10:48:06.851Z,57.20
2017-09-12T10:50:34.366Z,57.90
2017-09-12T10:53:01.858Z,57.90
2017-09-12T10:55:30.160Z,56.00
2017-09-12T10:57:57.683Z,56.00
2017-09-12T11:00:25.937Z,55.40
2017-09-12T11:02:54.239Z,56.00
2017-09-12T11:05:22.518Z,54.80
2017-09-12T11:07:50.820Z,53.30
2017-09-12T11:10:18.317Z,53.20
2017-09-12T11:12:46.611Z,51.50
2017-09-12T11:15:14.890Z,50.90
2017-09-12T11:17:43.186Z,51.30
2017-09-12T11:20:10.710Z,51.30
2017-09-12T11:22:38.204Z,50.60
2017-09-12T11:25:05.738Z,49.60
2017-09-12T11:27:34.008Z,49.60
2017-09-12T11:30:02.302Z,49.70
2017-09-12T11:32:30.590Z,48.30
2017-09-12T11:34:58.109Z,48.20
2017-09-12T11:37:25.600Z,48.00
2017-09-12T11:39:54.000Z,48.60
2017-09-12T11:42:21.496Z,50.30
2017-09-12T11:44:49.021Z,51.30
2017-09-12T11:47:16.514Z,51.40
2017-09-12T11:49:43.995Z,51.60
2017-09-12T11:52:12.293Z,53.00
2017-09-12T11:54:39.800Z,53.00
2017-09-12T11:57:07.320Z,53.40
2017-09-12T11:59:34.833Z,52.70
2017-09-12T12:02:03.105Z,53.80
2017-09-12T12:04:31.384Z,54.50
2017-09-12T12:06:59.640Z,55.00
2017-09-12T12:09:27.167Z,55.00
2017-09-12T12:11:54.660Z,55.70
2017-09-12T12:14:22.472Z,55.60
2017-09-12T12:16:49.974Z,55.50
2017-09-12T12:19:17.513Z,55.50
2017-09-12T12:21:45.001Z,55.80
2017-09-12T12:24:13.289Z,54.80
2017-09-12T12:26:41.632Z,55.00
2017-09-12T12:29:09.132Z,55.00
2017-09-12T12:31:36.655Z,53.10
2017-09-12T12:34:04.973Z,51.30
2017-09-12T12:36:32.491Z,51.30
2017-09-12T12:38:59.986Z,50.60
2017-09-12T12:41:27.502Z,48.50
2017-09-12T12:43:54.998Z,48.30
2017-09-12T12:46:22.524Z,47.50
2017-09-12T12:48:50.025Z,47.60
2017-09-12T12:51:17.555Z,51.50
2017-09-12T12:53:45.820Z,57.80
2017-09-12T12:56:14.092Z,58.90
2017-09-12T12:58:41.599Z,58.70
2017-09-12T13:01:09.116Z,57.70
2017-09-12T13:03:37.406Z,58.60
2017-09-12T13:06:05.670Z,58.20
2017-09-12T13:08:33.947Z,55.00
2017-09-12T13:11:02.211Z,54.70
2017-09-12T13:13:29.736Z,54.70
2017-09-12T13:15:57.254Z,55.00
2017-09-12T13:18:24.751Z,56.90
2017-09-12T13:20:52.301Z,56.00
2017-09-12T13:23:19.829Z,52.60
2017-09-12T13:25:47.353Z,51.80
2017-09-12T13:28:15.639Z,52.20
2017-09-12T13:30:43.903Z,51.80
2017-09-12T13:33:11.429Z,51.70
2017-09-12T13:35:38.929Z,51.00
2017-09-12T13:38:07.228Z,51.20
2017-09-12T13:40:34.717Z,51.10
2017-09-12T13:43:02.214Z,50.30
2017-09-12T13:45:30.508Z,49.70
2017-09-12T13:47:58.776Z,48.70
2017-09-12T13:50:27.071Z,48.70
2017-09-12T13:52:54.577Z,48.60
2017-09-12T13:55:22.095Z,48.60
2017-09-12T13:57:49.607Z,49.90
2017-09-12T14:00:17.129Z,49.90
2017-09-12T14:02:44.636Z,50.00
2017-09-12T14:05:12.894Z,51.30
2017-09-12T14:07:41.222Z,54.80
2017-09-12T14:10:08.727Z,54.70
2017-09-12T14:12:37.748Z,57.60
2017-09-12T14:15:05.237Z,57.60
2017-09-12T14:17:32.785Z,57.90
2017-09-12T14:20:00.289Z,54.50
2017-09-12T14:22:27.786Z,55.70
2017-09-12T14:24:55.337Z,54.40
2017-09-12T14:27:22.857Z,55.10
2017-09-12T14:29:50.385Z,52.80
2017-09-12T14:32:17.893Z,53.40
2017-09-12T14:34:46.190Z,53.00
2017-09-12T14:37:13.692Z,52.90
2017-09-12T14:39:41.224Z,52.60
2017-09-12T14:42:08.739Z,52.20
2017-09-12T14:44:37.016Z,53.10
2017-09-12T14:47:05.326Z,53.50
2017-09-12T14:49:32.832Z,53.50
2017-09-12T14:52:01.166Z,53.90
2017-09-12T14:54:28.671Z,54.30
2017-09-12T14:56:56.944Z,53.90
2017-09-12T14:59:24.468Z,53.90
2017-09-12T15:01:51.960Z,53.60
2017-09-12T15:04:19.503Z,51.70
2017-09-12T15:06:46.996Z,51.00
2017-09-12T15:09:15.293Z,48.80
2017-09-12T15:11:42.793Z,48.80
2017-09-12T15:14:10.284Z,48.10
2017-09-12T15:16:38.597Z,48.80
2017-09-12T15:19:06.097Z,48.70
2017-09-12T15:21:33.647Z,49.10
2017-09-12T15:24:01.155Z,48.80
2017-09-12T15:26:28.674Z,49.40
2017-09-12T15:28:56.176Z,49.30
2017-09-12T15:31:23.697Z,49.60
2017-09-12T15:33:51.955Z,50.40
2017-09-12T15:36:19.446Z,50.40
2017-09-12T15:38:46.997Z,50.40
2017-09-12T15:41:15.265Z,51.40
2017-09-12T15:43:43.538Z,53.00
2017-09-12T15:46:11.832Z,52.30
2017-09-12T15:48:39.320Z,52.30
2017-09-12T15:51:06.848Z,52.50
2017-09-12T15:53:34.349Z,52.20
2017-09-12T15:56:01.881Z,52.80
2017-09-12T15:58:29.438Z,52.80
2017-09-12T16:00:56.964Z,52.60
2017-09-12T16:03:25.226Z,52.80
2017-09-12T16:05:52.749Z,52.80
2017-09-12T16:08:20.260Z,52.90
2017-09-12T16:10:48.561Z,53.70
2017-09-12T16:13:16.102Z,53.70
2017-09-12T16:15:43.621Z,53.70
2017-09-12T16:18:11.118Z,53.50
2017-09-12T16:20:38.648Z,54.00
2017-09-12T16:23:06.162Z,54.10
2017-09-12T16:25:33.689Z,54.40
2017-09-12T16:28:01.268Z,54.30
2017-09-12T16:30:28.777Z,55.20
2017-09-12T16:32:56.271Z,54.60
2017-09-12T16:35:23.802Z,54.70
2017-09-12T16:37:52.077Z,54.70
2017-09-12T16:40:20.365Z,55.00
2017-09-12T16:42:48.646Z,55.10
2017-09-12T16:45:16.170Z,55.00
2017-09-12T16:47:43.710Z,55.40
2017-09-12T16:50:11.228Z,55.60
2017-09-12T16:52:38.751Z,55.20
2017-09-12T16:55:06.291Z,55.20
2017-09-12T16:57:33.912Z,55.40
2017-09-12T17:00:01.478Z,55.00
2017-09-12T17:02:28.980Z,55.20
2017-09-12T17:04:57.278Z,55.80
2017-09-12T17:07:25.552Z,55.50
2017-09-12T17:09:53.865Z,56.20
2017-09-12T17:12:21.361Z,56.10
2017-09-12T17:14:48.873Z,55.80
2017-09-12T17:17:16.526Z,55.90
2017-09-12T17:19:44.089Z,56.00
2017-09-12T17:22:11.631Z,56.30
2017-09-12T17:24:39.127Z,56.60
2017-09-12T17:27:06.668Z,56.70
2017-09-12T17:29:34.162Z,56.10
2017-09-12T17:32:01.732Z,56.10
2017-09-12T17:34:29.241Z,56.00
2017-09-12T17:36:56.735Z,56.60
2017-09-12T17:39:25.774Z,56.50
2017-09-12T17:41:53.282Z,56.50
2017-09-12T17:44:21.598Z,56.70
2017-09-12T17:46:49.173Z,56.70
2017-09-12T17:49:16.726Z,57.10
2017-09-12T17:51:44.239Z,56.90
2017-09-12T17:54:11.833Z,57.10
2017-09-12T17:56:39.333Z,57.30
2017-09-12T17:59:06.861Z,57.90
2017-09-12T18:01:34.396Z,58.00
2017-09-12T18:04:02.662Z,57.60
2017-09-12T18:06:30.955Z,58.20
2017-09-12T18:08:59.236Z,57.80
2017-09-12T18:11:26.774Z,57.80
2017-09-12T18:13:55.033Z,57.80
2017-09-12T18:16:22.604Z,57.80
2017-09-12T18:18:50.877Z,58.30
2017-09-12T18:21:19.153Z,58.70
2017-09-12T18:23:46.703Z,58.70
2017-09-12T18:26:15.715Z,59.60
2017-09-12T18:28:43.993Z,59.80
2017-09-12T18:31:12.275Z,60.00
2017-09-12T18:33:40.568Z,59.80
2017-09-12T18:36:08.073Z,59.80
2017-09-12T18:38:35.603Z,60.10
2017-09-12T18:41:03.162Z,59.80
2017-09-12T18:43:30.689Z,59.90
2017-09-12T18:45:58.228Z,60.40
2017-09-12T18:48:26.517Z,60.80
2017-09-12T18:50:54.029Z,60.70
2017-09-12T18:53:21.623Z,61.10
2017-09-12T18:55:49.903Z,61.40
2017-09-12T18:58:18.187Z,61.80
2017-09-12T19:00:45.725Z,61.80
2017-09-12T19:03:14.001Z,62.10
2017-09-12T19:05:42.292Z,62.60
2017-09-12T19:08:10.561Z,63.00
2017-09-12T19:10:38.870Z,63.60
2017-09-12T19:13:06.362Z,63.50
2017-09-12T19:15:33.877Z,64.20
2017-09-12T19:18:01.512Z,64.40
2017-09-12T19:20:29.777Z,65.00
2017-09-12T19:22:58.099Z,64.90
2017-09-12T19:25:25.625Z,64.90
2017-09-12T19:27:53.132Z,64.80
2017-09-12T19:30:20.728Z,64.80
2017-09-12T19:32:48.232Z,64.80
2017-09-12T19:35:15.783Z,64.70
2017-09-12T19:37:43.349Z,64.90
2017-09-12T19:40:10.854Z,65.30
2017-09-12T19:42:39.203Z,65.10
2017-09-12T19:45:06.929Z,65.10
2017-09-12T19:47:34.504Z,65.10
2017-09-12T19:50:02.038Z,65.30
2017-09-12T19:52:29.580Z,65.30
2017-09-12T19:54:57.909Z,65.10
2017-09-12T19:57:25.417Z,65.00
2017-09-12T19:59:53.794Z,65.40
2017-09-12T20:02:21.302Z,65.40
2017-09-12T20:04:48.814Z,65.10
2017-09-12T20:07:16.362Z,65.70
2017-09-12T20:09:44.665Z,64.80
2017-09-12T20:12:12.215Z,64.80
2017-09-12T20:14:39.763Z,65.10
2017-09-12T20:17:07.293Z,65.00
2017-09-12T20:19:36.343Z,65.00
2017-09-12T20:22:03.868Z,65.00
2017-09-12T20:24:32.182Z,64.90
2017-09-12T20:26:59.738Z,64.80
2017-09-12T20:29:27.270Z,64.80
2017-09-12T20:31:54.813Z,64.90
2017-09-12T20:34:23.095Z,64.60
2017-09-12T20:36:51.405Z,64.60
2017-09-12T20:39:18.918Z,64.60
2017-09-12T20:41:47.178Z,64.90
2017-09-12T20:44:14.705Z,64.80
2017-09-12T20:46:42.244Z,64.60
2017-09-12T20:49:09.809Z,65.10
2017-09-12T20:51:37.319Z,65.00
2017-09-12T20:54:04.855Z,65.00
2017-09-12T20:56:32.381Z,65.30
2017-09-12T20:58:59.889Z,65.10
2017-09-12T21:01:28.182Z,65.50
2017-09-12T21:03:56.465Z,65.60
2017-09-12T21:06:24.041Z,65.60
2017-09-12T21:08:51.561Z,65.90
2017-09-12T21:11:19.066Z,66.00
2017-09-12T21:13:46.607Z,66.20
2017-09-12T21:16:14.105Z,66.30
2017-09-12T21:18:41.649Z,66.30
2017-09-12T21:21:09.187Z,66.60
2017-09-12T21:23:36.701Z,66.30
2017-09-12T21:26:04.230Z,66.50
2017-09-12T21:28:31.744Z,66.70
2017-09-12T21:30:59.266Z,66.70
2017-09-12T21:33:26.802Z,67.00
2017-09-12T21:35:54.314Z,67.20
2017-09-12T21:38:21.833Z,67.10
2017-09-12T21:40:50.130Z,67.00
2017-09-12T21:43:18.394Z,66.90
2017-09-12T21:45:46.673Z,67.00
2017-09-12T21:48:14.181Z,67.10
2017-09-12T21:50:41.729Z,66.90
2017-09-12T21:53:09.223Z,66.80
2017-09-12T21:55:36.852Z,66.80
2017-09-12T21:58:04.379Z,66.80
2017-09-12T22:00:32.653Z,67.40
2017-09-12T22:03:00.990Z,67.40
2017-09-12T22:05:28.629Z,67.40
2017-09-12T22:07:56.272Z,67.40
2017-09-12T22:10:23.871Z,67.50
2017-09-12T22:12:51.457Z,67.50
2017-09-12T22:15:19.779Z,67.50
2017-09-12T22:17:56.148Z,67.50
2017-09-12T22:20:23.709Z,67.50
2017-09-12T22:22:51.290Z,67.20
2017-09-12T22:25:18.929Z,67.30
2017-09-12T22:27:47.359Z,67.30
2017-09-12T22:30:15.686Z,67.20
2017-09-12T22:32:43.272Z,67.20
2017-09-12T22:35:10.832Z,67.00
2017-09-12T22:37:38.438Z,66.80
2017-09-12T22:40:05.999Z,66.80
2017-09-12T22:42:33.562Z,66.70
2017-09-12T22:45:01.129Z,66.50
2017-09-12T22:47:28.666Z,66.50
2017-09-12T22:49:56.255Z,67.30
2017-09-12T22:52:27.614Z,66.40
2017-09-12T22:54:55.160Z,66.40
2017-09-12T22:57:22.761Z,66.30
2017-09-12T22:59:51.069Z,66.30
2017-09-12T23:02:18.665Z,66.30
2017-09-12T23:04:46.234Z,66.30
2017-09-12T23:07:13.788Z,66.00
2017-09-12T23:09:41.360Z,65.80
2017-09-12T23:12:08.917Z,66.10
2017-09-12T23:14:36.491Z,66.10
2017-09-12T23:17:04.814Z,66.20
2017-09-12T23:19:33.610Z,66.20
2017-09-12T23:22:01.159Z,66.20
2017-09-12T23:24:28.722Z,66.20
2017-09-12T23:26:56.371Z,66.10
2017-09-12T23:29:23.957Z,66.00
2017-09-12T23:31:51.547Z,66.00
2017-09-12T23:34:19.109Z,65.90
2017-09-12T23:36:47.453Z,66.20
2017-09-12T23:39:15.068Z,66.20
2017-09-12T23:41:43.385Z,66.50
2017-09-12T23:44:15.759Z,66.50
2017-09-12T23:46:43.310Z,66.50
2017-09-12T23:49:10.827Z,66.50
2017-09-12T23:51:38.312Z,66.50
2017-09-12T23:54:05.836Z,66.80
2017-09-12T23:56:34.221Z,67.10
2017-09-12T23:59:02.477Z,66.80
